Time;durP1;ratioP1;P1;durP2;ratioP2;P2;SDS_P1;SDS_P2;PMS_P1;PMS_P2;Temp;Humidity;BMP_temperature;BMP_pressure;BME280_temperature;BME280_humidity;BME280_pressure;Samples;Min_cycle;Max_cycle;Signal;HPM_P1;HPM_P2
2024/02/11 00:00:28;;;;;;;33.17;16.30;;;5.40;99.90;;;;;;5015549;28;20204;-56
2024/02/11 00:02:56;;;;;;;32.40;15.80;;;5.50;99.90;;;;;;5019409;28;20631;-53
2024/02/11 00:05:24;;;;;;;32.23;14.80;;;5.40;99.90;;;;;;5013423;28;20661;-56
2024/02/11 00:07:51;;;;;;;30.33;15.03;;;5.40;99.90;;;;;;5017151;28;20242;-55
2024/02/11 00:10:18;;;;;;;32.60;14.53;;;5.40;99.90;;;;;;4993781;28;20226;-53
2024/02/11 00:12:47;;;;;;;27.03;13.60;;;5.30;99.90;;;;;;5008348;28;20266;-54
2024/02/11 00:15:13;;;;;;;28.77;14.93;;;5.30;99.90;;;;;;5008989;28;20302;-56
2024/02/11 00:17:42;;;;;;;31.43;13.93;;;5.30;99.90;;;;;;5014049;28;20180;-51
2024/02/11 00:20:10;;;;;;;26.77;14.03;;;5.30;99.90;;;;;;5016568;28;20235;-55
2024/02/11 00:22:39;;;;;;;28.77;15.03;;;5.40;99.90;;;;;;5016841;28;20192;-54
2024/02/11 00:25:09;;;;;;;32.30;14.47;;;5.30;99.90;;;;;;4996325;28;20301;-55
2024/02/11 00:27:37;;;;;;;29.17;14.87;;;5.30;99.90;;;;;;5008031;28;20699;-51
2024/02/11 00:30:07;;;;;;;30.40;14.53;;;5.30;99.90;;;;;;5012793;28;20223;-53
2024/02/11 00:32:35;;;;;;;26.37;13.50;;;5.20;99.90;;;;;;5013136;28;20188;-53
2024/02/11 00:35:02;;;;;;;28.57;13.97;;;5.20;99.90;;;;;;5015612;28;20244;-54
2024/02/11 00:37:29;;;;;;;36.17;14.03;;;5.30;99.90;;;;;;5009328;28;20193;-50
2024/02/11 00:39:57;;;;;;;31.50;15.10;;;5.20;99.90;;;;;;4995128;28;20235;-57
2024/02/11 00:42:27;;;;;;;24.70;13.43;;;5.20;99.90;;;;;;5009566;28;20208;-58
2024/02/11 00:44:54;;;;;;;31.90;14.27;;;5.20;99.90;;;;;;5011397;28;20220;-54
2024/02/11 00:47:22;;;;;;;29.50;12.97;;;5.20;99.90;;;;;;5020428;28;20204;-57
2024/02/11 00:49:49;;;;;;;27.17;13.97;;;5.20;99.90;;;;;;5021990;28;20306;-51
2024/02/11 00:52:16;;;;;;;27.50;13.07;;;5.20;99.90;;;;;;5018641;28;20200;-57
2024/02/11 00:54:43;;;;;;;28.47;14.60;;;5.20;99.90;;;;;;4996466;28;20361;-52
2024/02/11 00:57:10;;;;;;;24.77;12.97;;;5.20;99.90;;;;;;5019358;28;20208;-51
2024/02/11 00:59:37;;;;;;;29.97;13.77;;;5.20;99.90;;;;;;5001577;28;20396;-52
2024/02/11 01:02:04;;;;;;;30.57;13.30;;;5.20;99.90;;;;;;5022044;28;20258;-54
2024/02/11 01:04:32;;;;;;;25.00;13.50;;;5.10;99.90;;;;;;5017344;28;20220;-56
2024/02/11 01:06:59;;;;;;;27.97;13.73;;;5.10;99.90;;;;;;5015955;28;20889;-52
2024/02/11 01:09:26;;;;;;;27.17;13.23;;;5.20;99.90;;;;;;5001118;28;20226;-57
2024/02/11 01:11:53;;;;;;;29.83;13.70;;;5.20;99.90;;;;;;5006070;28;20211;-56
2024/02/11 01:14:21;;;;;;;24.77;12.57;;;5.20;99.90;;;;;;5008452;28;20220;-56
2024/02/11 01:16:48;;;;;;;25.40;13.17;;;5.20;99.90;;;;;;5016171;28;20196;-52
2024/02/11 01:19:15;;;;;;;28.03;13.63;;;5.20;99.90;;;;;;5015982;28;20219;-52
2024/02/11 01:21:44;;;;;;;31.83;14.37;;;5.20;99.90;;;;;;5009148;28;20964;-51
2024/02/11 01:24:14;;;;;;;24.63;12.80;;;5.20;99.90;;;;;;5014246;28;20243;-52
2024/02/11 01:26:41;;;;;;;31.00;12.83;;;5.20;99.90;;;;;;4993064;28;20251;-52
2024/02/11 01:29:08;;;;;;;22.63;12.63;;;5.20;99.90;;;;;;5015163;28;20259;-48
2024/02/11 01:31:35;;;;;;;29.13;13.73;;;5.20;99.90;;;;;;5003304;28;20203;-57
2024/02/11 01:34:05;;;;;;;24.37;13.33;;;5.20;99.90;;;;;;5012688;28;20220;-53
2024/02/11 01:36:32;;;;;;;22.73;12.13;;;5.20;99.90;;;;;;5009495;28;20201;-57
2024/02/11 01:39:00;;;;;;;26.90;13.07;;;5.20;99.90;;;;;;5014623;28;20189;-52
2024/02/11 01:41:27;;;;;;;27.63;12.23;;;5.20;99.90;;;;;;4992243;28;20204;-55
2024/02/11 01:43:56;;;;;;;30.47;12.80;;;5.30;99.90;;;;;;5017626;28;20413;-52
2024/02/11 01:46:23;;;;;;;31.70;13.00;;;5.20;99.90;;;;;;5012146;28;20588;-57
2024/02/11 01:48:50;;;;;;;26.80;13.40;;;5.20;99.90;;;;;;5019169;28;20204;-54
2024/02/11 01:51:18;;;;;;;29.13;13.30;;;5.20;99.90;;;;;;5020305;28;20208;-57
2024/02/11 01:53:48;;;;;;;27.80;12.13;;;5.30;99.90;;;;;;5016761;28;20407;-53
2024/02/11 01:56:20;;;;;;;22.50;11.50;;;5.20;99.90;;;;;;4996282;28;20203;-53
2024/02/11 01:58:48;;;;;;;28.13;12.70;;;5.20;99.90;;;;;;5016190;28;20188;-53
2024/02/11 02:01:17;;;;;;;25.37;13.13;;;5.20;99.90;;;;;;5009027;28;20620;-52
2024/02/11 02:03:45;;;;;;;23.43;12.10;;;5.20;99.90;;;;;;5011882;28;20231;-54
2024/02/11 02:06:12;;;;;;;31.70;13.23;;;5.20;99.90;;;;;;5022199;28;20196;-52
2024/02/11 02:08:39;;;;;;;25.40;13.03;;;5.20;99.90;;;;;;5017878;28;20220;-50
2024/02/11 02:11:07;;;;;;;27.77;12.87;;;5.20;99.90;;;;;;5021518;28;20279;-53
2024/02/11 02:13:35;;;;;;;22.13;12.27;;;5.20;99.90;;;;;;4990935;28;20329;-55
2024/02/11 02:16:02;;;;;;;21.70;12.67;;;5.20;99.90;;;;;;5020801;28;20212;-53
2024/02/11 02:18:34;;;;;;;26.30;13.17;;;5.20;99.90;;;;;;5011087;28;20208;-54
2024/02/11 02:21:01;;;;;;;25.50;12.93;;;5.20;99.90;;;;;;5021223;28;20275;-51
2024/02/11 02:23:29;;;;;;;23.33;12.47;;;5.20;99.90;;;;;;5016665;28;20209;-57
2024/02/11 02:25:56;;;;;;;32.30;12.67;;;5.20;99.90;;;;;;5016260;28;20199;-47
2024/02/11 02:28:23;;;;;;;23.43;13.20;;;5.20;99.90;;;;;;4990268;28;20228;-57
2024/02/11 02:30:50;;;;;;;25.70;12.83;;;5.30;99.90;;;;;;5013246;28;20833;-50
2024/02/11 02:33:17;;;;;;;23.77;13.23;;;5.20;99.90;;;;;;5007960;28;20196;-54
2024/02/11 02:35:43;;;;;;;28.93;13.13;;;5.20;99.90;;;;;;5008809;28;20188;-58
2024/02/11 02:38:10;;;;;;;26.00;13.27;;;5.20;99.90;;;;;;5016170;28;20246;-57
2024/02/11 02:40:38;;;;;;;26.70;12.80;;;5.20;99.90;;;;;;5013175;28;22524;-55
2024/02/11 02:43:10;;;;;;;25.07;11.87;;;5.30;99.90;;;;;;5015177;28;20204;-57
2024/02/11 02:45:37;;;;;;;21.47;10.57;;;5.30;99.90;;;;;;5009413;28;20936;-54
2024/02/11 02:48:05;;;;;;;22.80;11.60;;;5.20;99.90;;;;;;5018994;28;20203;-54
2024/02/11 02:50:32;;;;;;;26.30;11.43;;;5.20;99.90;;;;;;5002793;28;20282;-52
2024/02/11 02:52:58;;;;;;;26.20;11.70;;;5.30;99.90;;;;;;5019650;28;20203;-51
2024/02/11 02:55:25;;;;;;;19.00;10.70;;;5.20;99.90;;;;;;5014549;28;20424;-54
2024/02/11 02:57:54;;;;;;;24.00;11.50;;;5.30;99.90;;;;;;5018955;28;20204;-50
2024/02/11 03:00:22;;;;;;;22.60;10.97;;;5.20;99.90;;;;;;4994314;28;20204;-57
2024/02/11 03:02:52;;;;;;;21.07;11.00;;;5.20;99.90;;;;;;5019042;28;20226;-51
2024/02/11 03:05:18;;;;;;;27.27;11.63;;;5.20;99.90;;;;;;5005647;28;20325;-57
2024/02/11 03:07:45;;;;;;;22.27;10.77;;;5.30;99.90;;;;;;5017335;28;20199;-52
2024/02/11 03:10:20;;;;;;;23.10;11.20;;;5.30;99.90;;;;;;5015303;28;20220;-58
2024/02/11 03:12:47;;;;;;;17.27;10.40;;;5.20;99.90;;;;;;5017498;28;20195;-52
2024/02/11 03:15:16;;;;;;;23.23;11.50;;;5.30;99.90;;;;;;4994539;28;20278;-56
2024/02/11 03:17:44;;;;;;;20.73;11.77;;;5.30;99.90;;;;;;5017645;28;20228;-51
2024/02/11 03:20:15;;;;;;;31.37;11.63;;;5.20;99.90;;;;;;5011118;28;20235;-56
2024/02/11 03:22:43;;;;;;;26.00;10.53;;;5.20;99.90;;;;;;5013411;28;20287;-51
2024/02/11 03:25:10;;;;;;;23.13;11.07;;;5.20;99.90;;;;;;5013101;28;20266;-55
2024/02/11 03:27:39;;;;;;;23.13;11.47;;;5.20;99.90;;;;;;5013511;28;20378;-56
2024/02/11 03:30:08;;;;;;;25.10;11.27;;;5.30;99.90;;;;;;5008319;28;20302;-56
2024/02/11 03:32:37;;;;;;;22.73;11.00;;;5.30;99.90;;;;;;5002969;28;20491;-53
2024/02/11 03:35:05;;;;;;;19.67;11.37;;;5.30;99.90;;;;;;5009398;28;20223;-53
2024/02/11 03:37:33;;;;;;;21.17;10.60;;;5.20;99.90;;;;;;5016125;28;20443;-56
2024/02/11 03:40:01;;;;;;;28.30;11.53;;;5.20;99.90;;;;;;5019965;28;20204;-53
2024/02/11 03:42:28;;;;;;;22.67;12.03;;;5.20;99.90;;;;;;5016121;28;20196;-53
2024/02/11 03:44:54;;;;;;;29.63;11.77;;;5.20;99.90;;;;;;5007498;28;20313;-50
2024/02/11 03:47:22;;;;;;;29.67;12.73;;;5.20;99.90;;;;;;4997987;28;20630;-53
2024/02/11 03:49:52;;;;;;;23.40;11.90;;;5.10;99.90;;;;;;5008138;28;20298;-57
2024/02/11 03:52:19;;;;;;;22.37;12.10;;;5.20;99.90;;;;;;5016263;28;20299;-49
2024/02/11 03:54:46;;;;;;;26.10;12.93;;;5.20;99.90;;;;;;5014939;28;20212;-56
2024/02/11 03:57:13;;;;;;;28.57;12.70;;;5.20;99.90;;;;;;5017384;28;20204;-50
2024/02/11 03:59:40;;;;;;;24.73;11.80;;;5.20;99.90;;;;;;5016022;28;20192;-57
2024/02/11 04:02:07;;;;;;;20.90;11.83;;;5.20;99.90;;;;;;4991973;28;20406;-54
2024/02/11 04:04:34;;;;;;;24.90;13.17;;;5.10;99.90;;;;;;5015527;28;20219;-56
2024/02/11 04:07:02;;;;;;;28.67;12.63;;;5.10;99.90;;;;;;5009707;28;20208;-51
2024/02/11 04:09:29;;;;;;;28.17;13.10;;;5.20;99.90;;;;;;5017003;28;20217;-50
2024/02/11 04:11:58;;;;;;;26.40;12.10;;;5.20;99.90;;;;;;5013650;28;20184;-53
2024/02/11 04:14:25;;;;;;;24.77;12.83;;;5.20;99.90;;;;;;5015746;28;20311;-54
2024/02/11 04:16:55;;;;;;;26.03;12.47;;;5.20;99.90;;;;;;4988567;28;20212;-54
2024/02/11 04:19:22;;;;;;;27.90;12.00;;;5.10;99.90;;;;;;5018426;28;20618;-51
2024/02/11 04:21:49;;;;;;;29.03;12.60;;;5.20;99.90;;;;;;5006458;28;20400;-55
2024/02/11 04:24:18;;;;;;;24.77;12.03;;;5.20;99.90;;;;;;5017101;28;20230;-53
2024/02/11 04:26:51;;;;;;;26.40;12.50;;;5.20;99.90;;;;;;5012820;28;20278;-55
2024/02/11 04:29:19;;;;;;;22.77;12.83;;;5.20;99.90;;;;;;5014902;28;20208;-55
2024/02/11 04:31:45;;;;;;;23.87;12.13;;;5.20;99.90;;;;;;4998605;28;20204;-57
2024/02/11 04:34:12;;;;;;;25.37;12.33;;;5.10;99.90;;;;;;5010394;28;20266;-53
2024/02/11 04:36:40;;;;;;;24.80;12.63;;;5.20;99.90;;;;;;5009249;28;20208;-55
2024/02/11 04:39:08;;;;;;;28.07;12.90;;;5.20;99.90;;;;;;5008187;28;20196;-56
2024/02/11 04:41:37;;;;;;;22.00;12.40;;;5.20;99.90;;;;;;5017419;28;20326;-54
2024/02/11 04:44:05;;;;;;;27.97;12.03;;;5.20;99.90;;;;;;5018206;28;20323;-56
2024/02/11 04:46:32;;;;;;;28.53;12.27;;;5.20;99.90;;;;;;5016202;28;20908;-50
2024/02/11 04:48:59;;;;;;;21.43;12.53;;;5.20;99.90;;;;;;4997238;28;20212;-56
2024/02/11 04:51:27;;;;;;;26.73;12.83;;;5.20;99.90;;;;;;5007582;28;20926;-52
2024/02/11 04:53:54;;;;;;;26.07;12.77;;;5.20;99.90;;;;;;5020863;28;20601;-49
2024/02/11 04:56:21;;;;;;;28.03;12.43;;;5.30;99.90;;;;;;5018503;28;20188;-49
2024/02/11 04:58:52;;;;;;;24.13;12.17;;;5.30;99.90;;;;;;5021460;28;20204;-51
2024/02/11 05:01:20;;;;;;;24.40;13.10;;;5.30;99.90;;;;;;5012766;28;20189;-56
2024/02/11 05:03:47;;;;;;;23.97;13.93;;;5.30;99.90;;;;;;4992684;28;20299;-52
2024/02/11 05:06:17;;;;;;;26.23;12.40;;;5.30;99.90;;;;;;5011108;28;20694;-54
2024/02/11 05:08:44;;;;;;;30.07;13.50;;;5.30;99.90;;;;;;5020878;28;20208;-53
2024/02/11 05:11:11;;;;;;;29.17;14.30;;;5.30;99.90;;;;;;5016051;28;20231;-56
2024/02/11 05:13:38;;;;;;;32.20;13.30;;;5.30;99.90;;;;;;5019129;28;20208;-51
2024/02/11 05:16:08;;;;;;;28.87;14.47;;;5.20;99.90;;;;;;5017751;28;20223;-56
2024/02/11 05:18:38;;;;;;;34.20;14.40;;;5.20;99.90;;;;;;4995725;28;20215;-53
2024/02/11 05:21:06;;;;;;;31.23;15.53;;;5.20;99.90;;;;;;5013311;28;20761;-57
2024/02/11 05:23:33;;;;;;;26.63;13.67;;;5.20;99.90;;;;;;5017946;28;20335;-54
2024/02/11 05:26:02;;;;;;;27.53;13.77;;;5.20;99.90;;;;;;5016729;28;20204;-55
2024/02/11 05:28:29;;;;;;;29.10;13.67;;;5.20;99.90;;;;;;5012779;28;20200;-50
2024/02/11 05:30:56;;;;;;;28.47;12.97;;;5.20;99.90;;;;;;5016866;28;20208;-53
2024/02/11 05:33:25;;;;;;;24.43;12.37;;;5.20;99.90;;;;;;4990910;28;20231;-52
2024/02/11 05:35:52;;;;;;;29.40;12.37;;;5.20;99.90;;;;;;5015981;28;20204;-53
2024/02/11 05:38:21;;;;;;;27.00;13.10;;;5.20;99.90;;;;;;5007962;28;20203;-48
2024/02/11 05:40:50;;;;;;;24.70;13.67;;;5.20;99.90;;;;;;5016687;28;20192;-56
2024/02/11 05:43:19;;;;;;;26.33;13.30;;;5.20;99.90;;;;;;5011536;28;20188;-53
2024/02/11 05:45:46;;;;;;;29.37;13.37;;;5.20;99.90;;;;;;5016303;28;20554;-51
2024/02/11 05:48:13;;;;;;;24.50;12.17;;;5.20;99.90;;;;;;5012990;28;20258;-55
2024/02/11 05:50:42;;;;;;;32.43;12.73;;;5.20;99.90;;;;;;4998221;28;20287;-50
2024/02/11 05:53:09;;;;;;;31.90;14.10;;;5.20;99.90;;;;;;5010690;28;20211;-54
2024/02/11 05:55:37;;;;;;;26.63;13.73;;;5.20;99.90;;;;;;5018081;28;20627;-52
2024/02/11 05:58:05;;;;;;;23.03;12.37;;;5.20;99.90;;;;;;5020004;28;20211;-59
2024/02/11 06:00:32;;;;;;;25.23;12.90;;;5.20;99.90;;;;;;5014814;28;20711;-52
2024/02/11 06:03:00;;;;;;;28.03;13.83;;;5.20;99.90;;;;;;5018133;28;20209;-55
2024/02/11 06:05:27;;;;;;;25.83;12.47;;;5.20;99.90;;;;;;4993945;28;20212;-49
2024/02/11 06:07:59;;;;;;;26.53;13.60;;;5.20;99.90;;;;;;5007484;28;20212;-55
2024/02/11 06:10:27;;;;;;;27.07;13.30;;;5.20;99.90;;;;;;5016612;28;20668;-54
2024/02/11 06:12:54;;;;;;;24.53;12.73;;;5.20;99.90;;;;;;5018836;28;20208;-54
2024/02/11 06:15:21;;;;;;;26.37;13.93;;;5.20;99.90;;;;;;5012493;28;20238;-49
2024/02/11 06:17:49;;;;;;;27.30;14.23;;;5.20;99.90;;;;;;5017354;28;20605;-53
2024/02/11 06:20:17;;;;;;;23.03;12.63;;;5.20;99.90;;;;;;5011928;28;20223;-56
2024/02/11 06:22:46;;;;;;;32.13;14.13;;;5.10;99.90;;;;;;4991305;28;20670;-52
2024/02/11 06:25:15;;;;;;;33.67;13.53;;;5.20;99.90;;;;;;5005858;28;20228;-54
2024/02/11 06:27:44;;;;;;;24.90;13.30;;;5.20;99.90;;;;;;5012777;28;20226;-52
2024/02/11 06:30:12;;;;;;;26.10;14.13;;;5.20;99.90;;;;;;5011442;28;20306;-56
2024/02/11 06:32:39;;;;;;;26.70;13.33;;;5.20;99.90;;;;;;5011933;28;20216;-51
2024/02/11 06:35:09;;;;;;;24.53;13.03;;;5.20;99.90;;;;;;5012176;28;20589;-54
2024/02/11 06:37:36;;;;;;;26.30;14.07;;;5.20;99.90;;;;;;4995183;28;20208;-48
2024/02/11 06:40:04;;;;;;;26.37;13.10;;;5.20;99.90;;;;;;5012272;28;20210;-55
2024/02/11 06:42:32;;;;;;;25.67;13.07;;;5.20;99.90;;;;;;5011672;28;20264;-55
2024/02/11 06:44:59;;;;;;;28.00;13.67;;;5.20;99.90;;;;;;5013621;28;20230;-56
2024/02/11 06:47:26;;;;;;;28.20;13.00;;;5.20;99.90;;;;;;5009866;28;20267;-52
2024/02/11 06:49:53;;;;;;;30.53;14.57;;;5.20;99.90;;;;;;5013883;28;20933;-53
2024/02/11 06:52:20;;;;;;;26.83;12.80;;;5.20;99.90;;;;;;4993189;28;20290;-51
2024/02/11 06:54:49;;;;;;;26.53;13.47;;;5.20;99.90;;;;;;5012274;28;20247;-50
2024/02/11 06:57:16;;;;;;;26.13;13.47;;;5.30;99.90;;;;;;5016115;28;20224;-56
2024/02/11 06:59:44;;;;;;;24.10;13.33;;;5.20;99.90;;;;;;5018590;28;20206;-53
2024/02/11 07:02:11;;;;;;;24.50;13.10;;;5.30;99.90;;;;;;5017179;28;20192;-55
2024/02/11 07:04:38;;;;;;;26.57;13.43;;;5.30;99.90;;;;;;5018047;28;20218;-54
2024/02/11 07:07:05;;;;;;;24.60;12.70;;;5.20;99.90;;;;;;5007497;28;20192;-55
2024/02/11 07:09:32;;;;;;;25.07;12.93;;;5.20;99.90;;;;;;4999924;28;21261;-56
2024/02/11 07:11:59;;;;;;;26.07;13.50;;;5.30;99.90;;;;;;5017637;28;20220;-57
2024/02/11 07:14:27;;;;;;;27.47;13.03;;;5.30;99.90;;;;;;5013780;28;20282;-51
2024/02/11 07:16:55;;;;;;;28.87;13.37;;;5.30;99.90;;;;;;5016960;28;20208;-53
2024/02/11 07:19:24;;;;;;;30.67;13.33;;;5.30;99.90;;;;;;5011167;28;20200;-52
2024/02/11 07:21:52;;;;;;;25.60;14.27;;;5.30;99.90;;;;;;5014487;28;20271;-49
2024/02/11 07:24:19;;;;;;;25.20;12.63;;;5.30;99.90;;;;;;4988794;28;20208;-49
2024/02/11 07:26:48;;;;;;;24.47;13.13;;;5.30;99.90;;;;;;5008029;28;20220;-52
2024/02/11 07:29:14;;;;;;;28.77;13.83;;;5.30;99.90;;;;;;5016525;28;20192;-56
2024/02/11 07:31:42;;;;;;;28.40;14.30;;;5.30;99.90;;;;;;5004713;28;20215;-50
2024/02/11 07:34:11;;;;;;;28.50;14.00;;;5.40;99.90;;;;;;5012764;28;20991;-48
2024/02/11 07:36:38;;;;;;;28.83;13.50;;;5.30;99.90;;;;;;5010001;28;20295;-53
2024/02/11 07:39:05;;;;;;;25.30;13.33;;;5.30;99.90;;;;;;4990616;28;20204;-52
2024/02/11 07:41:32;;;;;;;24.30;13.27;;;5.40;99.90;;;;;;5001093;28;20200;-48
2024/02/11 07:43:59;;;;;;;26.80;13.57;;;5.30;99.90;;;;;;5005904;28;20281;-55
2024/02/11 07:46:25;;;;;;;26.10;13.93;;;5.40;99.90;;;;;;5007854;28;20535;-53
2024/02/11 07:48:53;;;;;;;27.03;14.03;;;5.40;99.90;;;;;;5019329;28;20212;-56
2024/02/11 07:51:23;;;;;;;24.80;13.63;;;5.40;99.90;;;;;;5014667;28;20216;-49
2024/02/11 07:53:50;;;;;;;24.13;13.00;;;5.40;99.90;;;;;;5004742;28;20253;-56
2024/02/11 07:56:18;;;;;;;27.73;13.73;;;5.40;99.90;;;;;;5004650;28;20196;-51
2024/02/11 07:58:45;;;;;;;25.90;14.47;;;5.40;99.90;;;;;;5012406;28;20575;-52
2024/02/11 08:01:12;;;;;;;28.40;13.93;;;5.40;99.90;;;;;;5002691;28;20408;-48
2024/02/11 08:03:39;;;;;;;23.20;13.40;;;5.40;99.90;;;;;;5007264;28;20909;-53
2024/02/11 08:06:06;;;;;;;29.10;14.93;;;5.40;99.90;;;;;;5020710;28;20196;-51
2024/02/11 08:08:36;;;;;;;23.70;14.13;;;5.40;99.90;;;;;;5002096;28;20200;-56
2024/02/11 08:11:03;;;;;;;28.27;14.30;;;5.40;99.90;;;;;;4998222;28;20302;-54
2024/02/11 08:13:31;;;;;;;28.43;15.03;;;5.40;99.90;;;;;;5009889;28;20216;-55
2024/02/11 08:15:57;;;;;;;26.33;14.00;;;5.40;99.90;;;;;;5021866;28;21037;-53
2024/02/11 08:18:24;;;;;;;27.27;13.50;;;5.40;99.90;;;;;;5012437;28;20231;-56
2024/02/11 08:20:51;;;;;;;31.30;15.30;;;5.50;99.90;;;;;;5022057;28;20203;-49
2024/02/11 08:23:18;;;;;;;29.97;15.90;;;5.50;99.90;;;;;;5015804;28;20200;-56
2024/02/11 08:25:46;;;;;;;27.67;13.43;;;5.50;99.90;;;;;;4997531;28;20223;-52
2024/02/11 08:28:13;;;;;;;28.27;14.50;;;5.40;99.90;;;;;;5002759;28;20207;-52
2024/02/11 08:30:40;;;;;;;32.23;14.83;;;5.40;99.90;;;;;;5021524;28;20255;-52
2024/02/11 08:33:09;;;;;;;25.87;14.47;;;5.40;99.90;;;;;;5007562;28;20443;-53
2024/02/11 08:35:36;;;;;;;27.57;14.37;;;5.40;99.90;;;;;;5017449;28;20208;-49
2024/02/11 08:38:03;;;;;;;27.37;14.07;;;5.40;99.90;;;;;;5011902;28;20670;-51
2024/02/11 08:40:30;;;;;;;29.33;15.30;;;5.40;99.90;;;;;;5000353;28;20277;-54
2024/02/11 08:42:58;;;;;;;29.03;15.43;;;5.40;99.90;;;;;;5007864;28;20207;-57
2024/02/11 08:45:25;;;;;;;27.07;14.60;;;5.40;99.90;;;;;;5022828;28;20226;-53
2024/02/11 08:47:51;;;;;;;28.73;14.07;;;5.50;99.90;;;;;;5007725;28;20259;-57
2024/02/11 08:50:18;;;;;;;30.50;15.23;;;5.40;99.90;;;;;;5017805;28;20266;-53
2024/02/11 08:52:46;;;;;;;27.10;14.23;;;5.50;99.90;;;;;;5020698;28;20243;-56
2024/02/11 08:55:14;;;;;;;33.93;16.00;;;5.50;99.90;;;;;;4992948;28;20745;-55
2024/02/11 08:57:41;;;;;;;33.33;14.37;;;5.40;99.90;;;;;;5016745;28;20740;-52
2024/02/11 09:00:14;;;;;;;32.20;15.90;;;5.40;99.90;;;;;;5011187;28;20969;-55
2024/02/11 09:02:40;;;;;;;31.77;15.80;;;5.50;99.90;;;;;;5014873;28;20299;-52
2024/02/11 09:05:08;;;;;;;28.63;14.13;;;5.50;99.90;;;;;;4995908;28;20255;-51
2024/02/11 09:07:35;;;;;;;33.57;15.27;;;5.50;99.90;;;;;;5020496;28;20246;-54
2024/02/11 09:10:02;;;;;;;29.40;15.60;;;5.50;99.90;;;;;;5014045;28;20196;-51
2024/02/11 09:12:29;;;;;;;37.67;15.63;;;5.60;99.90;;;;;;4998639;28;20671;-56
2024/02/11 09:14:56;;;;;;;24.97;14.57;;;5.50;99.90;;;;;;5004655;28;20226;-52
2024/02/11 09:17:25;;;;;;;26.80;14.37;;;5.50;99.90;;;;;;5018554;28;20253;-49
2024/02/11 09:19:52;;;;;;;28.53;14.87;;;5.60;99.90;;;;;;5004282;28;20590;-51
2024/02/11 09:22:19;;;;;;;34.87;15.27;;;5.50;99.90;;;;;;5014861;28;20220;-55
2024/02/11 09:24:46;;;;;;;36.23;15.57;;;5.50;99.90;;;;;;5008820;28;20227;-51
2024/02/11 09:27:13;;;;;;;32.97;16.80;;;5.50;99.90;;;;;;4998298;28;20200;-54
2024/02/11 09:29:40;;;;;;;34.43;15.87;;;5.50;99.90;;;;;;5010020;28;20250;-56
2024/02/11 09:32:08;;;;;;;30.73;15.37;;;5.60;99.90;;;;;;5018250;28;20212;-50
2024/02/11 09:34:36;;;;;;;31.17;16.00;;;5.60;99.90;;;;;;5012281;28;20310;-58
2024/02/11 09:37:05;;;;;;;35.23;16.67;;;5.60;99.90;;;;;;5005717;28;20352;-53
2024/02/11 09:39:32;;;;;;;30.10;15.17;;;5.60;99.90;;;;;;5018444;28;20204;-58
2024/02/11 09:41:59;;;;;;;34.47;15.23;;;5.60;99.90;;;;;;4993737;28;20636;-56
2024/02/11 09:44:28;;;;;;;30.37;15.17;;;5.60;99.90;;;;;;5019596;28;20208;-56
2024/02/11 09:46:56;;;;;;;34.93;16.33;;;5.60;99.90;;;;;;5011753;28;20211;-56
2024/02/11 09:49:25;;;;;;;33.53;16.63;;;5.60;99.90;;;;;;5010953;28;20671;-55
2024/02/11 09:51:55;;;;;;;31.23;16.67;;;5.60;99.90;;;;;;5007403;28;20235;-54
2024/02/11 09:54:24;;;;;;;41.73;17.63;;;5.70;99.90;;;;;;5023010;28;20234;-52
2024/02/11 09:56:51;;;;;;;32.37;16.77;;;5.60;99.90;;;;;;4986435;28;20209;-55
2024/02/11 09:59:18;;;;;;;35.37;16.17;;;5.70;99.90;;;;;;5022123;28;20208;-54
2024/02/11 10:01:45;;;;;;;35.77;15.97;;;5.60;99.90;;;;;;5009800;28;20911;-56
2024/02/11 10:04:15;;;;;;;30.57;16.27;;;5.60;99.90;;;;;;5009573;28;20281;-52
2024/02/11 10:06:43;;;;;;;32.93;17.77;;;5.70;99.90;;;;;;5003707;28;20291;-59
2024/02/11 10:09:12;;;;;;;33.90;15.87;;;5.70;99.90;;;;;;5014422;28;20196;-55
2024/02/11 10:11:39;;;;;;;29.03;16.07;;;5.60;99.90;;;;;;5008212;28;20204;-57
2024/02/11 10:14:11;;;;;;;34.53;16.87;;;5.70;99.90;;;;;;5000590;28;20227;-54
2024/02/11 10:16:39;;;;;;;35.70;17.57;;;5.70;99.90;;;;;;5012855;28;20590;-57
2024/02/11 10:19:07;;;;;;;35.20;16.73;;;5.70;99.90;;;;;;5024072;28;20206;-55
2024/02/11 10:21:34;;;;;;;31.63;15.50;;;5.70;99.90;;;;;;5009701;28;20278;-56
2024/02/11 10:24:01;;;;;;;34.17;16.07;;;5.70;99.90;;;;;;5014254;28;20215;-54
2024/02/11 10:26:31;;;;;;;31.80;16.00;;;5.80;99.90;;;;;;5013028;28;20223;-57
2024/02/11 10:28:59;;;;;;;32.27;16.30;;;5.80;99.90;;;;;;4995515;28;20302;-53
2024/02/11 10:31:29;;;;;;;32.97;15.33;;;5.70;99.90;;;;;;5009178;28;20219;-56
2024/02/11 10:33:57;;;;;;;30.30;14.47;;;5.80;99.90;;;;;;5008672;28;20289;-53
2024/02/11 10:36:25;;;;;;;29.00;15.40;;;5.80;99.90;;;;;;5012271;28;20676;-56
2024/02/11 10:38:52;;;;;;;31.40;15.33;;;5.80;99.90;;;;;;5012348;28;20381;-56
2024/02/11 10:41:19;;;;;;;29.47;14.90;;;5.80;99.90;;;;;;5020075;28;20275;-56
2024/02/11 10:43:48;;;;;;;27.70;14.93;;;5.80;99.90;;;;;;5002927;28;20599;-56
2024/02/11 10:46:15;;;;;;;28.03;14.40;;;5.80;99.90;;;;;;4994468;28;20859;-53
2024/02/11 10:48:42;;;;;;;31.60;15.40;;;5.80;99.90;;;;;;5009729;28;20216;-51
2024/02/11 10:51:12;;;;;;;28.50;15.60;;;5.80;99.90;;;;;;5001328;28;20238;-52
2024/02/11 10:53:45;;;;;;;26.67;14.87;;;5.80;99.90;;;;;;5013238;28;20230;-55
2024/02/11 10:56:14;;;;;;;28.97;15.10;;;5.80;99.90;;;;;;5009045;28;20207;-50
2024/02/11 10:58:45;;;;;;;30.20;15.47;;;5.80;99.90;;;;;;5019223;28;20188;-56
2024/02/11 11:01:16;;;;;;;33.43;15.77;;;5.90;99.90;;;;;;4998382;28;20211;-53
2024/02/11 11:03:45;;;;;;;29.87;15.23;;;5.90;99.90;;;;;;5010389;28;20217;-51
2024/02/11 11:06:17;;;;;;;30.90;16.00;;;5.90;99.90;;;;;;5007031;28;20253;-54
2024/02/11 11:08:45;;;;;;;30.50;16.20;;;5.90;99.90;;;;;;5008800;28;20214;-56
2024/02/11 11:11:23;;;;;;;31.97;15.80;;;5.90;99.90;;;;;;5009545;28;20223;-53
2024/02/11 11:13:52;;;;;;;28.97;15.17;;;5.90;99.90;;;;;;5016184;28;20265;-56
2024/02/11 11:16:24;;;;;;;36.37;18.37;;;5.90;99.90;;;;;;4996387;28;20694;-54
2024/02/11 11:18:52;;;;;;;34.53;16.47;;;5.90;99.90;;;;;;5008547;28;20267;-56
2024/02/11 11:21:18;;;;;;;30.30;15.00;;;5.90;99.90;;;;;;5012416;28;20270;-51
2024/02/11 11:23:48;;;;;;;29.87;15.67;;;5.90;99.90;;;;;;5006976;28;20251;-57
2024/02/11 11:26:20;;;;;;;34.07;16.50;;;6.00;99.90;;;;;;5010894;28;20204;-53
2024/02/11 11:28:47;;;;;;;33.17;16.20;;;6.00;99.90;;;;;;5008222;28;20199;-55
2024/02/11 11:31:14;;;;;;;27.17;14.93;;;6.00;99.90;;;;;;4995851;28;20215;-57
2024/02/11 11:33:43;;;;;;;33.00;16.70;;;6.00;99.90;;;;;;5011503;28;20462;-55
2024/02/11 11:36:10;;;;;;;28.40;15.20;;;5.90;99.90;;;;;;5004918;28;20223;-51
2024/02/11 11:38:37;;;;;;;34.10;15.80;;;6.00;99.90;;;;;;5015597;28;20204;-54
2024/02/11 11:41:06;;;;;;;32.70;16.23;;;6.00;99.90;;;;;;5004667;28;20864;-56
2024/02/11 11:43:35;;;;;;;35.60;16.77;;;6.00;99.90;;;;;;5016695;28;20311;-54
2024/02/11 11:46:04;;;;;;;32.50;16.87;;;6.00;99.90;;;;;;4996035;28;20197;-58
2024/02/11 11:48:33;;;;;;;31.80;16.33;;;6.00;99.90;;;;;;5016317;28;20201;-54
2024/02/11 11:51:03;;;;;;;30.53;15.67;;;5.90;99.90;;;;;;4997660;28;20211;-52
2024/02/11 11:53:30;;;;;;;32.47;16.20;;;5.90;99.90;;;;;;5013924;28;20248;-55
2024/02/11 11:56:00;;;;;;;31.00;15.80;;;5.90;99.90;;;;;;5010108;28;20958;-53
2024/02/11 11:58:28;;;;;;;33.33;16.83;;;5.90;99.90;;;;;;5016397;28;20203;-54
2024/02/11 12:00:59;;;;;;;35.63;17.73;;;5.90;99.90;;;;;;5020004;28;20216;-51
2024/02/11 12:03:27;;;;;;;30.90;15.90;;;6.00;99.90;;;;;;5004174;28;20216;-55
2024/02/11 12:05:55;;;;;;;31.87;16.43;;;5.90;99.90;;;;;;5001992;28;20217;-53
2024/02/11 12:08:25;;;;;;;32.33;16.50;;;5.90;99.90;;;;;;5015270;28;20199;-53
2024/02/11 12:11:00;;;;;;;35.80;16.63;;;5.90;99.90;;;;;;5012930;28;20512;-53
2024/02/11 12:13:30;;;;;;;31.20;15.77;;;5.90;99.90;;;;;;5014124;28;20298;-53
2024/02/11 12:15:57;;;;;;;33.17;14.77;;;5.90;99.90;;;;;;5023803;28;20211;-54
2024/02/11 12:18:25;;;;;;;30.33;15.67;;;5.90;99.90;;;;;;4998923;28;20286;-52
2024/02/11 12:20:53;;;;;;;33.07;16.30;;;6.00;99.90;;;;;;5007776;28;20232;-54
2024/02/11 12:23:20;;;;;;;33.00;16.67;;;5.90;99.90;;;;;;5013469;28;20219;-53
2024/02/11 12:25:54;;;;;;;36.47;16.80;;;6.00;99.90;;;;;;5009593;28;20293;-53
2024/02/11 12:28:25;;;;;;;33.23;16.83;;;6.00;99.90;;;;;;5018245;28;20784;-49
2024/02/11 12:30:52;;;;;;;36.17;16.17;;;6.00;99.90;;;;;;5015723;28;21111;-52
2024/02/11 12:33:19;;;;;;;27.30;15.00;;;6.00;99.90;;;;;;4999040;28;20239;-52
2024/02/11 12:35:46;;;;;;;29.10;15.83;;;5.90;99.90;;;;;;5019472;28;20208;-54
2024/02/11 12:38:14;;;;;;;27.10;14.90;;;5.90;99.90;;;;;;5006191;28;20240;-50